DAL214 KCLT-KMCO
Flight info
| Callsign | DAL214 |
|---|---|
| Flight time | 1h 17m |
| Altitude | 33000 |
| Route | ICONS5 NOOKS WURFL Q83 ROYCO Q85 LPERD SNFLD3 |
| Aircraft | A21N/M-SDE2E3FGHIRWXY/LB1 |
Departure
| Time | 2026-04-21 20:49 |
|---|---|
| Airport | Charlotte Douglas International Airport (KCLT) |
Arrival
| Time | 2026-04-21 22:06 |
|---|---|
| Airport | Orlando International Airport (KMCO) |
| Time | Latitude | Longitude | Altitude | Speed | Heading |
|---|---|---|---|---|---|
| 2026-04-21 19:16 | 35.21789 | -80.94460 | 727 ft | 0 kts | 294° |
| 2026-04-21 20:30 | 35.21784 | -80.94447 | 726 ft | 2 kts | 293° |
| 2026-04-21 20:31 | 35.21782 | -80.94425 | 726 ft | 3 kts | 258° |
| 2026-04-21 20:31 | 35.21790 | -80.94405 | 725 ft | 2 kts | 222° |
| 2026-04-21 20:31 | 35.21806 | -80.94394 | 725 ft | 2 kts | 189° |
| 2026-04-21 20:31 | 35.21808 | -80.94394 | 725 ft | 0 kts | 186° |
| 2026-04-21 20:42 | 35.21805 | -80.94394 | 724 ft | 1 kts | 185° |
| 2026-04-21 20:43 | 35.21781 | -80.94394 | 726 ft | 8 kts | 178° |
| 2026-04-21 20:43 | 35.21717 | -80.94389 | 724 ft | 1 kts | 176° |
| 2026-04-21 20:43 | 35.21701 | -80.94386 | 725 ft | 6 kts | 165° |
| 2026-04-21 20:43 | 35.21678 | -80.94321 | 726 ft | 8 kts | 96° |
| 2026-04-21 20:44 | 35.21675 | -80.94284 | 728 ft | 7 kts | 96° |
| 2026-04-21 20:44 | 35.21673 | -80.94203 | 728 ft | 9 kts | 70° |
| 2026-04-21 20:44 | 35.21713 | -80.94142 | 729 ft | 7 kts | 50° |
| 2026-04-21 20:44 | 35.21742 | -80.94103 | 728 ft | 6 kts | 48° |
| 2026-04-21 20:45 | 35.21756 | -80.94083 | 728 ft | 3 kts | 52° |
| 2026-04-21 20:45 | 35.21760 | -80.94062 | 727 ft | 6 kts | 101° |
| 2026-04-21 20:45 | 35.21715 | -80.94000 | 727 ft | 14 kts | 139° |
| 2026-04-21 20:45 | 35.21625 | -80.93903 | 729 ft | 17 kts | 138° |
| 2026-04-21 20:46 | 35.21525 | -80.93796 | 726 ft | 21 kts | 138° |
| 2026-04-21 20:46 | 35.21419 | -80.93683 | 725 ft | 18 kts | 142° |
| 2026-04-21 20:46 | 35.21284 | -80.93649 | 726 ft | 25 kts | 176° |
| 2026-04-21 20:46 | 35.21100 | -80.93633 | 724 ft | 29 kts | 175° |
| 2026-04-21 20:47 | 35.20914 | -80.93619 | 722 ft | 29 kts | 176° |
| 2026-04-21 20:47 | 35.20725 | -80.93601 | 721 ft | 22 kts | 176° |
| 2026-04-21 20:47 | 35.20555 | -80.93586 | 719 ft | 22 kts | 175° |
| 2026-04-21 20:47 | 35.20447 | -80.93578 | 719 ft | 13 kts | 175° |
| 2026-04-21 20:48 | 35.20321 | -80.93566 | 717 ft | 22 kts | 176° |
| 2026-04-21 20:48 | 35.20234 | -80.93556 | 716 ft | 4 kts | 162° |
| 2026-04-21 20:48 | 35.20213 | -80.93499 | 718 ft | 11 kts | 89° |
| 2026-04-21 20:48 | 35.20238 | -80.93429 | 719 ft | 8 kts | 22° |
| 2026-04-21 20:49 | 35.20338 | -80.93429 | 719 ft | 47 kts | 356° |
| 2026-04-21 20:49 | 35.20997 | -80.93488 | 722 ft | 146 kts | 356° |
| 2026-04-21 20:49 | 35.22220 | -80.93573 | 1186 ft | 192 kts | 359° |
| 2026-04-21 20:49 | 35.23569 | -80.93192 | 2224 ft | 207 kts | 18° |
| 2026-04-21 20:50 | 35.25026 | -80.92699 | 3224 ft | 228 kts | 14° |
| 2026-04-21 20:50 | 35.26633 | -80.92246 | 4060 ft | 246 kts | 10° |
| 2026-04-21 20:50 | 35.28267 | -80.91753 | 5377 ft | 240 kts | 17° |
| 2026-04-21 20:50 | 35.29725 | -80.90863 | 6966 ft | 235 kts | 32° |
| 2026-04-21 20:51 | 35.30917 | -80.89396 | 7894 ft | 258 kts | 56° |
| 2026-04-21 20:51 | 35.31423 | -80.87205 | 8752 ft | 282 kts | 89° |
| 2026-04-21 20:51 | 35.30847 | -80.84870 | 9802 ft | 296 kts | 122° |
| 2026-04-21 20:51 | 35.29327 | -80.83143 | 10776 ft | 308 kts | 152° |
| 2026-04-21 20:52 | 35.27201 | -80.82429 | 11276 ft | 331 kts | 182° |
| 2026-04-21 20:52 | 35.24893 | -80.82923 | 11983 ft | 343 kts | 199° |
| 2026-04-21 20:52 | 35.22578 | -80.83754 | 12960 ft | 351 kts | 199° |
| 2026-04-21 20:52 | 35.20198 | -80.84518 | 14003 ft | 357 kts | 197° |
| 2026-04-21 20:53 | 35.17746 | -80.85197 | 14920 ft | 364 kts | 196° |
| 2026-04-21 20:53 | 35.15240 | -80.85821 | 15818 ft | 372 kts | 195° |
| 2026-04-21 20:53 | 35.12673 | -80.86417 | 16700 ft | 379 kts | 194° |
| 2026-04-21 20:53 | 35.10085 | -80.86995 | 17575 ft | 385 kts | 194° |
| 2026-04-21 20:54 | 35.07429 | -80.87576 | 18463 ft | 391 kts | 194° |
| 2026-04-21 20:54 | 35.04723 | -80.88162 | 19238 ft | 397 kts | 194° |
| 2026-04-21 20:54 | 35.01977 | -80.88753 | 19997 ft | 402 kts | 195° |
| 2026-04-21 20:54 | 34.99207 | -80.89346 | 20747 ft | 407 kts | 195° |
| 2026-04-21 20:55 | 34.96394 | -80.89948 | 21478 ft | 412 kts | 195° |
| 2026-04-21 20:55 | 34.93546 | -80.90557 | 22222 ft | 417 kts | 195° |
| 2026-04-21 20:55 | 34.90662 | -80.91172 | 22922 ft | 422 kts | 195° |
| 2026-04-21 20:55 | 34.87762 | -80.91790 | 23715 ft | 425 kts | 195° |
| 2026-04-21 20:56 | 34.84873 | -80.92406 | 24307 ft | 429 kts | 195° |
| 2026-04-21 20:56 | 34.81919 | -80.93036 | 24883 ft | 433 kts | 195° |
| 2026-04-21 20:56 | 34.78942 | -80.93670 | 25477 ft | 435 kts | 195° |
| 2026-04-21 20:56 | 34.75941 | -80.94309 | 26060 ft | 438 kts | 195° |
| 2026-04-21 20:57 | 34.72930 | -80.94950 | 26612 ft | 441 kts | 195° |
| 2026-04-21 20:57 | 34.69895 | -80.95596 | 27158 ft | 444 kts | 195° |
| 2026-04-21 20:57 | 34.66842 | -80.96246 | 27671 ft | 446 kts | 195° |
| 2026-04-21 20:57 | 34.63776 | -80.96897 | 28195 ft | 449 kts | 195° |
| 2026-04-21 20:58 | 34.60661 | -80.97384 | 28714 ft | 454 kts | 191° |
| 2026-04-21 20:58 | 34.57501 | -80.97712 | 29192 ft | 458 kts | 190° |
| 2026-04-21 20:58 | 34.54314 | -80.98008 | 29662 ft | 461 kts | 190° |
| 2026-04-21 20:58 | 34.51110 | -80.98303 | 30130 ft | 463 kts | 190° |
| 2026-04-21 20:59 | 34.47881 | -80.98601 | 30530 ft | 466 kts | 190° |
| 2026-04-21 20:59 | 34.44636 | -80.98902 | 30878 ft | 469 kts | 190° |
| 2026-04-21 20:59 | 34.41380 | -80.99205 | 31233 ft | 471 kts | 190° |
| 2026-04-21 20:59 | 34.38156 | -80.99505 | 31720 ft | 469 kts | 190° |
| 2026-04-21 21:00 | 34.34914 | -80.99805 | 32249 ft | 466 kts | 190° |
| 2026-04-21 21:00 | 34.31703 | -81.00103 | 32890 ft | 461 kts | 191° |
| 2026-04-21 21:00 | 34.28501 | -81.00401 | 33259 ft | 463 kts | 191° |
| 2026-04-21 21:00 | 34.25279 | -81.00705 | 33321 ft | 464 kts | 191° |
| 2026-04-21 21:01 | 34.18828 | -81.01307 | 33325 ft | 464 kts | 191° |
| 2026-04-21 21:01 | 34.12373 | -81.01908 | 33308 ft | 464 kts | 191° |
| 2026-04-21 21:02 | 34.05940 | -81.02505 | 33312 ft | 463 kts | 191° |
| 2026-04-21 21:02 | 33.99560 | -81.03097 | 33309 ft | 463 kts | 190° |
| 2026-04-21 21:03 | 33.94137 | -81.03334 | 33311 ft | 467 kts | 186° |
| 2026-04-21 21:03 | 33.86573 | -81.03218 | 33304 ft | 468 kts | 185° |
| 2026-04-21 21:04 | 33.81159 | -81.03100 | 33301 ft | 467 kts | 185° |
| 2026-04-21 21:04 | 33.74659 | -81.03002 | 33320 ft | 467 kts | 185° |
| 2026-04-21 21:05 | 33.68160 | -81.02936 | 33319 ft | 467 kts | 185° |
| 2026-04-21 21:05 | 33.61665 | -81.02880 | 33297 ft | 467 kts | 185° |
| 2026-04-21 21:06 | 33.55154 | -81.02823 | 33293 ft | 467 kts | 185° |
| 2026-04-21 21:06 | 33.48642 | -81.02764 | 33299 ft | 467 kts | 185° |
| 2026-04-21 21:07 | 33.42137 | -81.02704 | 33323 ft | 467 kts | 185° |
| 2026-04-21 21:07 | 33.35675 | -81.02644 | 33317 ft | 467 kts | 185° |
| 2026-04-21 21:08 | 33.29161 | -81.02585 | 33324 ft | 468 kts | 185° |
| 2026-04-21 21:08 | 33.22634 | -81.02525 | 33324 ft | 468 kts | 185° |
| 2026-04-21 21:09 | 33.16114 | -81.02465 | 33324 ft | 468 kts | 185° |
| 2026-04-21 21:09 | 33.09592 | -81.02405 | 33323 ft | 468 kts | 185° |
| 2026-04-21 21:10 | 33.03109 | -81.02346 | 33311 ft | 468 kts | 185° |
| 2026-04-21 21:10 | 32.96593 | -81.02287 | 33312 ft | 468 kts | 185° |
| 2026-04-21 21:11 | 32.90063 | -81.02228 | 33311 ft | 468 kts | 185° |
| 2026-04-21 21:11 | 32.83540 | -81.02168 | 33314 ft | 468 kts | 185° |
| 2026-04-21 21:12 | 32.77002 | -81.02110 | 33313 ft | 470 kts | 185° |
| 2026-04-21 21:12 | 32.70457 | -81.02051 | 33314 ft | 470 kts | 185° |
| 2026-04-21 21:13 | 32.63906 | -81.01991 | 33315 ft | 470 kts | 185° |
| 2026-04-21 21:13 | 32.57352 | -81.01932 | 33316 ft | 470 kts | 185° |
| 2026-04-21 21:14 | 32.50831 | -81.01895 | 33318 ft | 472 kts | 186° |
| 2026-04-21 21:14 | 32.44265 | -81.01916 | 33318 ft | 472 kts | 186° |
| 2026-04-21 21:15 | 32.37672 | -81.01939 | 33318 ft | 472 kts | 186° |
| 2026-04-21 21:15 | 32.31093 | -81.01961 | 33310 ft | 472 kts | 186° |
| 2026-04-21 21:16 | 32.24513 | -81.01983 | 33308 ft | 474 kts | 186° |
| 2026-04-21 21:16 | 32.17905 | -81.02004 | 33305 ft | 475 kts | 186° |
| 2026-04-21 21:17 | 32.11290 | -81.02025 | 33284 ft | 475 kts | 186° |
| 2026-04-21 21:17 | 32.04726 | -81.02046 | 33279 ft | 475 kts | 186° |
| 2026-04-21 21:18 | 31.98106 | -81.02068 | 33278 ft | 477 kts | 186° |
| 2026-04-21 21:18 | 31.91451 | -81.02090 | 33281 ft | 478 kts | 186° |
| 2026-04-21 21:19 | 31.84787 | -81.02110 | 33288 ft | 479 kts | 186° |
| 2026-04-21 21:19 | 31.78124 | -81.02131 | 33293 ft | 479 kts | 186° |
| 2026-04-21 21:20 | 31.71497 | -81.02153 | 33291 ft | 480 kts | 186° |
| 2026-04-21 21:20 | 31.64797 | -81.02174 | 33306 ft | 481 kts | 186° |
| 2026-04-21 21:21 | 31.58092 | -81.02195 | 33298 ft | 481 kts | 186° |
| 2026-04-21 21:21 | 31.51391 | -81.02216 | 33297 ft | 481 kts | 186° |
| 2026-04-21 21:22 | 31.44687 | -81.02237 | 33296 ft | 482 kts | 186° |
| 2026-04-21 21:22 | 31.38006 | -81.02258 | 33294 ft | 483 kts | 186° |
| 2026-04-21 21:23 | 31.31275 | -81.02279 | 33290 ft | 483 kts | 186° |
| 2026-04-21 21:23 | 31.24549 | -81.02300 | 33289 ft | 483 kts | 186° |
| 2026-04-21 21:24 | 31.17811 | -81.02322 | 33283 ft | 484 kts | 186° |
| 2026-04-21 21:24 | 31.11063 | -81.02343 | 33288 ft | 485 kts | 186° |
| 2026-04-21 21:25 | 31.04293 | -81.02364 | 33288 ft | 485 kts | 186° |
| 2026-04-21 21:25 | 30.97537 | -81.02385 | 33287 ft | 486 kts | 186° |
| 2026-04-21 21:26 | 30.90818 | -81.02406 | 33282 ft | 486 kts | 186° |
| 2026-04-21 21:26 | 30.84051 | -81.02427 | 33287 ft | 486 kts | 186° |
| 2026-04-21 21:27 | 30.77282 | -81.02448 | 33287 ft | 486 kts | 186° |
| 2026-04-21 21:27 | 30.70504 | -81.02469 | 33289 ft | 486 kts | 186° |
| 2026-04-21 21:28 | 30.63733 | -81.02490 | 33263 ft | 486 kts | 186° |
| 2026-04-21 21:29 | 30.53559 | -81.02522 | 33290 ft | 487 kts | 186° |
| 2026-04-21 21:29 | 30.46769 | -81.02542 | 33289 ft | 487 kts | 186° |
| 2026-04-21 21:30 | 30.40029 | -81.02563 | 33289 ft | 487 kts | 186° |
| 2026-04-21 21:30 | 30.33245 | -81.02584 | 33290 ft | 487 kts | 186° |
| 2026-04-21 21:31 | 30.26449 | -81.02605 | 33289 ft | 487 kts | 186° |
| 2026-04-21 21:31 | 30.19660 | -81.02626 | 33289 ft | 487 kts | 186° |
| 2026-04-21 21:32 | 30.12878 | -81.02647 | 33293 ft | 488 kts | 186° |
| 2026-04-21 21:32 | 30.06133 | -81.02667 | 33293 ft | 488 kts | 186° |
| 2026-04-21 21:33 | 29.99345 | -81.02688 | 33297 ft | 488 kts | 186° |
| 2026-04-21 21:33 | 29.92550 | -81.02709 | 33299 ft | 488 kts | 186° |
| 2026-04-21 21:34 | 29.85753 | -81.02730 | 33297 ft | 488 kts | 186° |
| 2026-04-21 21:34 | 29.78962 | -81.02751 | 33288 ft | 488 kts | 186° |
| 2026-04-21 21:35 | 29.72217 | -81.02771 | 33257 ft | 486 kts | 186° |
| 2026-04-21 21:35 | 29.68860 | -81.02778 | 32793 ft | 478 kts | 186° |
| 2026-04-21 21:35 | 29.65516 | -81.02789 | 31703 ft | 484 kts | 185° |
| 2026-04-21 21:35 | 29.62121 | -81.02803 | 30697 ft | 489 kts | 185° |
| 2026-04-21 21:36 | 29.58736 | -81.02813 | 30004 ft | 484 kts | 185° |
| 2026-04-21 21:36 | 29.55382 | -81.02820 | 29316 ft | 477 kts | 185° |
| 2026-04-21 21:36 | 29.52090 | -81.02828 | 28644 ft | 471 kts | 185° |
| 2026-04-21 21:36 | 29.48831 | -81.02837 | 27990 ft | 464 kts | 185° |
| 2026-04-21 21:37 | 29.45618 | -81.02846 | 27331 ft | 459 kts | 185° |
| 2026-04-21 21:37 | 29.42439 | -81.02856 | 26671 ft | 454 kts | 185° |
| 2026-04-21 21:37 | 29.39289 | -81.02866 | 26028 ft | 449 kts | 185° |
| 2026-04-21 21:37 | 29.36182 | -81.02875 | 25396 ft | 444 kts | 185° |
| 2026-04-21 21:38 | 29.33146 | -81.02885 | 24775 ft | 440 kts | 185° |
| 2026-04-21 21:38 | 29.30099 | -81.02894 | 24139 ft | 436 kts | 185° |
| 2026-04-21 21:38 | 29.27081 | -81.02904 | 23447 ft | 432 kts | 184° |
| 2026-04-21 21:38 | 29.24097 | -81.02913 | 22807 ft | 425 kts | 184° |
| 2026-04-21 21:39 | 29.21159 | -81.02921 | 22193 ft | 418 kts | 184° |
| 2026-04-21 21:39 | 29.18275 | -81.02929 | 21605 ft | 411 kts | 184° |
| 2026-04-21 21:39 | 29.15430 | -81.02938 | 21007 ft | 406 kts | 184° |
| 2026-04-21 21:39 | 29.12621 | -81.02947 | 20424 ft | 400 kts | 184° |
| 2026-04-21 21:40 | 29.09857 | -81.02956 | 19848 ft | 394 kts | 183° |
| 2026-04-21 21:40 | 29.07126 | -81.02965 | 19288 ft | 389 kts | 183° |
| 2026-04-21 21:40 | 29.04436 | -81.02974 | 18735 ft | 384 kts | 182° |
| 2026-04-21 21:40 | 29.01779 | -81.02982 | 18132 ft | 379 kts | 182° |
| 2026-04-21 21:41 | 28.99157 | -81.02990 | 17591 ft | 374 kts | 182° |
| 2026-04-21 21:41 | 28.96566 | -81.02998 | 17057 ft | 369 kts | 182° |
| 2026-04-21 21:41 | 28.94010 | -81.03006 | 16551 ft | 365 kts | 182° |
| 2026-04-21 21:41 | 28.91490 | -81.03014 | 16045 ft | 361 kts | 182° |
| 2026-04-21 21:42 | 28.89022 | -81.03022 | 15550 ft | 357 kts | 182° |
| 2026-04-21 21:42 | 28.86514 | -81.03029 | 15039 ft | 354 kts | 181° |
| 2026-04-21 21:42 | 28.84093 | -81.03037 | 14550 ft | 352 kts | 181° |
| 2026-04-21 21:42 | 28.81651 | -81.03067 | 14036 ft | 349 kts | 184° |
| 2026-04-21 21:43 | 28.79280 | -81.03572 | 13399 ft | 348 kts | 202° |
| 2026-04-21 21:43 | 28.77239 | -81.04993 | 12853 ft | 341 kts | 225° |
| 2026-04-21 21:43 | 28.75693 | -81.06939 | 12718 ft | 321 kts | 232° |
| 2026-04-21 21:43 | 28.74331 | -81.08867 | 12626 ft | 305 kts | 234° |
| 2026-04-21 21:44 | 28.73027 | -81.10745 | 12275 ft | 301 kts | 234° |
| 2026-04-21 21:44 | 28.71723 | -81.12603 | 11890 ft | 300 kts | 232° |
| 2026-04-21 21:44 | 28.70172 | -81.14169 | 11530 ft | 300 kts | 212° |
| 2026-04-21 21:44 | 28.68239 | -81.15049 | 11176 ft | 299 kts | 196° |
| 2026-04-21 21:45 | 28.66229 | -81.15610 | 10823 ft | 297 kts | 193° |
| 2026-04-21 21:45 | 28.64219 | -81.16114 | 10467 ft | 295 kts | 193° |
| 2026-04-21 21:45 | 28.62218 | -81.16615 | 10107 ft | 293 kts | 193° |
| 2026-04-21 21:45 | 28.60238 | -81.17118 | 9726 ft | 290 kts | 193° |
| 2026-04-21 21:46 | 28.58289 | -81.17618 | 9503 ft | 279 kts | 192° |
| 2026-04-21 21:46 | 28.56444 | -81.18094 | 9389 ft | 267 kts | 192° |
| 2026-04-21 21:46 | 28.54654 | -81.18513 | 9080 ft | 264 kts | 186° |
| 2026-04-21 21:46 | 28.52814 | -81.18651 | 8771 ft | 261 kts | 180° |
| 2026-04-21 21:47 | 28.51029 | -81.18677 | 8496 ft | 258 kts | 179° |
| 2026-04-21 21:47 | 28.49244 | -81.18686 | 8243 ft | 255 kts | 178° |
| 2026-04-21 21:47 | 28.47475 | -81.18693 | 7976 ft | 252 kts | 177° |
| 2026-04-21 21:47 | 28.45727 | -81.18703 | 7704 ft | 250 kts | 178° |
| 2026-04-21 21:48 | 28.43994 | -81.18716 | 7437 ft | 248 kts | 177° |
| 2026-04-21 21:48 | 28.42270 | -81.18728 | 7169 ft | 248 kts | 177° |
| 2026-04-21 21:48 | 28.40542 | -81.18741 | 6896 ft | 248 kts | 178° |
| 2026-04-21 21:48 | 28.38824 | -81.18753 | 6618 ft | 246 kts | 178° |
| 2026-04-21 21:49 | 28.37129 | -81.18766 | 6390 ft | 239 kts | 177° |
| 2026-04-21 21:49 | 28.35503 | -81.18781 | 6293 ft | 230 kts | 175° |
| 2026-04-21 21:49 | 28.34443 | -81.18788 | 6104 ft | 230 kts | 174° |
| 2026-04-21 21:49 | 28.32831 | -81.18798 | 5735 ft | 231 kts | 174° |
| 2026-04-21 21:50 | 28.31219 | -81.18801 | 5494 ft | 233 kts | 174° |
| 2026-04-21 21:50 | 28.29576 | -81.18781 | 5321 ft | 239 kts | 174° |
| 2026-04-21 21:50 | 28.27910 | -81.18757 | 5285 ft | 239 kts | 173° |
| 2026-04-21 21:50 | 28.26249 | -81.18731 | 5282 ft | 238 kts | 174° |
| 2026-04-21 21:51 | 28.24592 | -81.18705 | 5280 ft | 239 kts | 173° |
| 2026-04-21 21:51 | 28.22933 | -81.18695 | 5278 ft | 237 kts | 178° |
| 2026-04-21 21:51 | 28.21377 | -81.19052 | 4924 ft | 233 kts | 197° |
| 2026-04-21 21:51 | 28.20040 | -81.20104 | 4490 ft | 230 kts | 227° |
| 2026-04-21 21:52 | 28.19378 | -81.21696 | 4091 ft | 221 kts | 260° |
| 2026-04-21 21:52 | 28.19428 | -81.23376 | 3600 ft | 214 kts | 288° |
| 2026-04-21 21:52 | 28.19975 | -81.24932 | 3317 ft | 213 kts | 300° |
| 2026-04-21 21:52 | 28.20731 | -81.26365 | 3282 ft | 209 kts | 313° |
| 2026-04-21 21:53 | 28.21785 | -81.27437 | 3281 ft | 199 kts | 335° |
| 2026-04-21 21:53 | 28.23036 | -81.27980 | 3277 ft | 189 kts | 355° |
| 2026-04-21 21:53 | 28.24336 | -81.28105 | 3275 ft | 187 kts | 4° |
| 2026-04-21 21:53 | 28.25629 | -81.28117 | 3273 ft | 185 kts | 6° |
| 2026-04-21 21:54 | 28.26927 | -81.28113 | 3277 ft | 187 kts | 6° |
| 2026-04-21 21:54 | 28.28215 | -81.28114 | 3159 ft | 183 kts | 6° |
| 2026-04-21 21:54 | 28.29469 | -81.28121 | 2904 ft | 175 kts | 6° |
| 2026-04-21 21:54 | 28.30669 | -81.28130 | 2590 ft | 171 kts | 6° |
| 2026-04-21 21:55 | 28.31828 | -81.28144 | 2410 ft | 161 kts | 7° |
| 2026-04-21 21:55 | 28.32919 | -81.28150 | 2148 ft | 156 kts | 9° |
| 2026-04-21 21:55 | 28.34003 | -81.28145 | 1827 ft | 158 kts | 6° |
| 2026-04-21 21:55 | 28.35099 | -81.28202 | 1472 ft | 156 kts | 6° |
| 2026-04-21 21:56 | 28.36159 | -81.28205 | 1157 ft | 147 kts | 9° |
| 2026-04-21 21:56 | 28.37167 | -81.28205 | 953 ft | 144 kts | 8° |
| 2026-04-21 21:56 | 28.38170 | -81.28211 | 761 ft | 143 kts | 9° |
| 2026-04-21 21:56 | 28.39167 | -81.28198 | 575 ft | 145 kts | 5° |
| 2026-04-21 21:57 | 28.40191 | -81.28225 | 428 ft | 146 kts | 7° |
| 2026-04-21 21:57 | 28.41187 | -81.28249 | 221 ft | 142 kts | 4° |
| 2026-04-21 21:57 | 28.42253 | -81.28094 | 634 ft | 179 kts | 5° |
| 2026-04-21 21:57 | 28.43686 | -81.28215 | 1108 ft | 233 kts | 1° |
| 2026-04-21 21:58 | 28.45514 | -81.28155 | 1305 ft | 292 kts | 14° |
| 2026-04-21 21:58 | 28.47617 | -81.27339 | 1302 ft | 347 kts | 30° |
| 2026-04-21 21:58 | 28.49446 | -81.25809 | 1509 ft | 317 kts | 54° |
| 2026-04-21 21:58 | 28.50284 | -81.23450 | 2024 ft | 331 kts | 84° |
| 2026-04-21 21:59 | 28.49940 | -81.21104 | 2398 ft | 287 kts | 116° |
| 2026-04-21 21:59 | 28.48632 | -81.19465 | 2478 ft | 280 kts | 140° |
| 2026-04-21 21:59 | 28.46950 | -81.18336 | 2296 ft | 284 kts | 153° |
| 2026-04-21 21:59 | 28.45053 | -81.17607 | 2078 ft | 289 kts | 161° |
| 2026-04-21 22:00 | 28.43117 | -81.17047 | 1989 ft | 280 kts | 164° |
| 2026-04-21 22:00 | 28.41316 | -81.16677 | 1865 ft | 248 kts | 166° |
| 2026-04-21 22:00 | 28.39681 | -81.16467 | 1738 ft | 226 kts | 169° |
| 2026-04-21 22:00 | 28.38144 | -81.16386 | 1418 ft | 217 kts | 173° |
| 2026-04-21 22:01 | 28.36645 | -81.16398 | 1189 ft | 215 kts | 176° |
| 2026-04-21 22:01 | 28.35198 | -81.16465 | 1059 ft | 214 kts | 178° |
| 2026-04-21 22:01 | 28.33723 | -81.16603 | 965 ft | 213 kts | 178° |
| 2026-04-21 22:01 | 28.32258 | -81.16775 | 974 ft | 210 kts | 179° |
| 2026-04-21 22:02 | 28.30831 | -81.17121 | 1127 ft | 215 kts | 199° |
| 2026-04-21 22:02 | 28.29722 | -81.18261 | 1317 ft | 223 kts | 239° |
| 2026-04-21 22:02 | 28.29378 | -81.19955 | 1526 ft | 227 kts | 271° |
| 2026-04-21 22:02 | 28.29477 | -81.21746 | 1733 ft | 226 kts | 278° |
| 2026-04-21 22:03 | 28.29719 | -81.23442 | 1848 ft | 209 kts | 287° |
| 2026-04-21 22:03 | 28.30280 | -81.24933 | 1934 ft | 203 kts | 306° |
| 2026-04-21 22:03 | 28.31162 | -81.26174 | 2074 ft | 201 kts | 319° |
| 2026-04-21 22:03 | 28.32146 | -81.27210 | 2051 ft | 179 kts | 330° |
| 2026-04-21 22:04 | 28.33139 | -81.27877 | 1898 ft | 157 kts | 342° |
| 2026-04-21 22:04 | 28.34128 | -81.28240 | 1646 ft | 144 kts | 2° |
| 2026-04-21 22:04 | 28.35123 | -81.28266 | 1330 ft | 147 kts | 9° |
| 2026-04-21 22:04 | 28.36187 | -81.28190 | 1081 ft | 157 kts | 9° |
| 2026-04-21 22:05 | 28.37283 | -81.28220 | 909 ft | 154 kts | 6° |
| 2026-04-21 22:05 | 28.38315 | -81.28233 | 674 ft | 144 kts | 7° |
| 2026-04-21 22:05 | 28.39302 | -81.28208 | 533 ft | 145 kts | 8° |
| 2026-04-21 22:05 | 28.40339 | -81.28226 | 376 ft | 149 kts | 6° |
| 2026-04-21 22:06 | 28.41365 | -81.28232 | 237 ft | 148 kts | 6° |
| 2026-04-21 22:06 | 28.42377 | -81.28243 | 111 ft | 144 kts | 5° |
| 2026-04-21 22:06 | 28.43069 | -81.28244 | 102 ft | 54 kts | 359° |
| 2026-04-21 22:06 | 28.43350 | -81.28247 | 104 ft | 33 kts | 357° |
| 2026-04-21 22:07 | 28.43471 | -81.28269 | 103 ft | 13 kts | 335° |
| 2026-04-21 22:07 | 28.43527 | -81.28317 | 105 ft | 0 kts | 309° |
| 2026-04-21 22:08 | 28.43527 | -81.28319 | 104 ft | 0 kts | 308° |
| 2026-04-21 22:08 | 28.43623 | -81.28373 | 108 ft | 23 kts | 355° |
| 2026-04-21 22:08 | 28.43781 | -81.28376 | 109 ft | 23 kts | 358° |
| 2026-04-21 22:09 | 28.43876 | -81.28434 | 111 ft | 18 kts | 274° |
| 2026-04-21 22:09 | 28.43875 | -81.28640 | 110 ft | 33 kts | 269° |
| 2026-04-21 22:09 | 28.43872 | -81.28927 | 110 ft | 39 kts | 269° |
| 2026-04-21 22:09 | 28.43870 | -81.29196 | 104 ft | 24 kts | 268° |
| 2026-04-21 22:10 | 28.43815 | -81.29264 | 104 ft | 9 kts | 181° |
| 2026-04-21 22:10 | 28.43725 | -81.29263 | 105 ft | 18 kts | 179° |
| 2026-04-21 22:10 | 28.43578 | -81.29271 | 107 ft | 14 kts | 205° |
| 2026-04-21 22:10 | 28.43553 | -81.29378 | 109 ft | 21 kts | 269° |
| 2026-04-21 22:11 | 28.43552 | -81.29550 | 108 ft | 20 kts | 269° |
| 2026-04-21 22:11 | 28.43551 | -81.29643 | 107 ft | 4 kts | 270° |
| 2026-04-21 22:11 | 28.43551 | -81.29736 | 106 ft | 20 kts | 269° |
| 2026-04-21 22:11 | 28.43550 | -81.29846 | 106 ft | 7 kts | 271° |
| 2026-04-21 22:12 | 28.43604 | -81.29888 | 104 ft | 12 kts | 350° |
| 2026-04-21 22:12 | 28.43613 | -81.29966 | 104 ft | 18 kts | 256° |
| 2026-04-21 22:12 | 28.43595 | -81.30047 | 103 ft | 3 kts | 257° |
| 2026-04-21 22:12 | 28.43594 | -81.30053 | 104 ft | 0 kts | 257° |